Time;durP1;ratioP1;P1;durP2;ratioP2;P2;SDS_P1;SDS_P2;PMS_P1;PMS_P2;Temp;Humidity;BMP_temperature;BMP_pressure;BME280_temperature;BME280_humidity;BME280_pressure;Samples;Min_cycle;Max_cycle;Signal;HPM_P1;HPM_P2
2021/08/09 10:44:21;;;;;;;12.78;5.80;;;;;;;29.99;48.24;99989.52;1764609;80;21032;-34
2021/08/09 10:46:50;;;;;;;17.07;6.03;;;;;;;30.20;47.65;99984.98;1738782;80;21033;-34
2021/08/09 10:49:46;;;;;;;12.60;5.42;;;;;;;30.36;47.04;99988.56;1726126;81;21584;-34
2021/08/09 10:52:15;;;;;;;8.90;5.20;;;;;;;30.45;46.70;99990.47;1691356;84;21564;-34
2021/08/09 10:54:42;;;;;;;13.70;5.90;;;;;;;30.32;47.38;99991.66;1666600;83;21028;-32
2021/08/09 10:57:08;;;;;;;15.03;5.22;;;;;;;30.16;46.84;100001.09;1719840;82;21053;-34
2021/08/09 10:59:45;;;;;;;13.60;6.03;;;;;;;30.09;47.72;99980.98;1726521;81;21093;-33
2021/08/09 11:02:22;;;;;;;11.70;5.55;;;;;;;30.05;47.47;99989.00;1724235;81;21072;-38
2021/08/09 11:05:19;;;;;;;15.75;5.10;;;;;;;29.99;46.92;100000.80;1724362;81;21025;-33
2021/08/09 11:07:49;;;;;;;18.42;5.35;;;;;;;29.91;47.34;99984.77;1687522;84;21089;-34
2021/08/09 11:10:54;;;;;;;11.53;5.05;;;;;;;29.77;47.81;99991.84;1663191;84;20982;-41
2021/08/09 11:13:24;;;;;;;15.10;5.65;;;;;;;29.63;48.03;99985.40;1660702;85;21500;-41
2021/08/09 11:16:00;;;;;;;12.55;5.72;;;;;;;29.62;49.01;99998.52;1682298;84;21049;-35
2021/08/09 11:18:28;;;;;;;14.85;5.65;;;;;;;29.70;50.31;99989.31;1682327;84;21085;-33
2021/08/09 11:21:10;;;;;;;13.75;6.05;;;;;;;29.73;48.85;99996.27;1673965;84;21600;-33
2021/08/09 11:23:47;;;;;;;10.00;6.28;;;;;;;29.63;49.64;99997.52;1691825;83;21101;-33
2021/08/09 11:26:22;;;;;;;15.85;6.37;;;;;;;29.51;51.06;99999.88;1664852;84;21120;-39
2021/08/09 11:29:05;;;;;;;11.40;5.40;;;;;;;29.45;49.91;99999.03;1667437;85;21001;-38
2021/08/09 11:31:47;;;;;;;10.25;5.60;;;;;;;29.36;51.12;99990.75;1692320;83;21049;-41
2021/08/09 11:34:14;;;;;;;9.13;5.85;;;;;;;29.32;50.61;99989.28;1682507;83;21110;-40
2021/08/09 11:36:41;;;;;;;12.78;5.50;;;;;;;29.27;51.00;99983.42;1660734;84;21130;-40
2021/08/09 11:39:08;;;;;;;11.55;5.40;;;;;;;29.30;50.22;99991.26;1696988;83;21489;-40
2021/08/09 11:41:35;;;;;;;12.23;5.90;;;;;;;29.33;51.69;99985.60;1692576;83;21061;-34
2021/08/09 11:44:10;;;;;;;13.25;6.22;;;;;;;29.34;50.63;99994.53;1661081;85;21122;-34
2021/08/09 11:46:51;;;;;;;12.28;5.75;;;;;;;29.28;50.67;99977.53;1679805;83;21770;-40
2021/08/09 11:49:20;;;;;;;9.60;5.10;;;;;;;29.28;51.20;99974.38;1668623;84;21049;-40
2021/08/09 11:51:48;;;;;;;9.65;5.22;;;;;;;29.27;51.36;99973.14;1660587;85;21096;-35
2021/08/09 11:54:15;;;;;;;8.43;5.40;;;;;;;29.28;51.15;99972.15;1662250;85;21073;-35
2021/08/09 11:56:43;;;;;;;11.57;5.67;;;;;;;29.28;51.46;99976.19;1699096;82;21111;-41
2021/08/09 11:59:17;;;;;;;9.20;6.00;;;;;;;29.26;51.95;99974.98;1681805;82;22662;-41
2021/08/09 12:01:47;;;;;;;16.00;6.40;;;;;;;29.21;51.74;99983.08;1734282;82;21072;-35
2021/08/09 12:04:18;;;;;;;11.33;5.05;;;;;;;29.20;51.02;99970.59;1728920;82;21085;-37
2021/08/09 12:06:52;;;;;;;10.15;5.72;;;;;;;29.27;51.49;99977.17;1722842;81;21603;-42
2021/08/09 12:09:24;;;;;;;9.43;5.60;;;;;;;29.29;51.71;99984.66;1730199;82;21080;-41
2021/08/09 12:11:59;;;;;;;8.70;4.87;;;;;;;29.23;51.92;99981.98;1715768;82;21119;-41
2021/08/09 12:14:26;;;;;;;13.38;5.45;;;;;;;29.20;51.21;99975.98;1725128;82;21082;-35
2021/08/09 12:16:58;;;;;;;8.50;5.70;;;;;;;29.14;51.87;99979.54;1730251;81;21119;-41
2021/08/09 12:19:47;;;;;;;9.53;5.35;;;;;;;29.11;52.69;99973.57;1721587;82;21070;-41
2021/08/09 12:22:21;;;;;;;10.53;5.83;;;;;;;29.08;52.25;99972.46;1729119;82;21050;-33
2021/08/09 12:25:17;;;;;;;9.15;5.45;;;;;;;29.07;53.94;99979.69;1734751;81;22236;-40
2021/08/09 12:27:45;;;;;;;9.10;5.25;;;;;;;29.06;53.51;99976.64;1681625;83;21029;-39
2021/08/09 12:30:16;;;;;;;9.98;4.90;;;;;;;29.07;52.51;99977.00;1661511;85;21055;-34
2021/08/09 12:33:01;;;;;;;6.60;5.37;;;;;;;29.08;53.12;99967.93;1663221;85;21607;-33
2021/08/09 12:35:40;;;;;;;10.53;5.10;;;;;;;29.14;53.53;99977.34;1623835;86;21070;-42
2021/08/09 12:38:10;;;;;;;7.00;5.78;;;;;;;29.11;53.76;99977.12;1659159;84;21549;-37
2021/08/09 12:40:40;;;;;;;9.63;5.15;;;;;;;29.05;52.86;99968.66;1649121;85;21052;-36
2021/08/09 12:43:09;;;;;;;9.28;5.37;;;;;;;29.02;53.98;99971.13;1692884;83;20989;-41
2021/08/09 12:45:36;;;;;;;5.67;5.03;;;;;;;29.04;54.00;99968.30;1691047;83;21133;-42
2021/08/09 12:48:05;;;;;;;10.45;5.42;;;;;;;29.05;53.14;99968.66;1672346;83;21045;-41
2021/08/09 12:50:32;;;;;;;5.47;4.90;;;;;;;29.02;52.84;99968.44;1639918;85;21633;-39
2021/08/09 12:52:59;;;;;;;9.38;5.08;;;;;;;29.00;53.53;99963.67;1715787;82;23264;-39
2021/08/09 12:55:25;;;;;;;8.30;5.30;;;;;;;29.03;53.95;99965.25;1721184;81;21020;-35
2021/08/09 12:57:52;;;;;;;7.67;4.45;;;;;;;29.04;53.52;99962.42;1713565;81;21016;-33
2021/08/09 13:00:20;;;;;;;5.40;4.35;;;;;;;29.03;54.57;99970.14;1721303;81;21068;-33
2021/08/09 13:02:47;;;;;;;5.90;4.62;;;;;;;29.06;53.43;99963.67;1722026;82;20965;-35
2021/08/09 13:05:14;;;;;;;7.80;4.75;;;;;;;29.06;52.64;99963.17;1671914;84;21704;-41
2021/08/09 13:07:40;;;;;;;11.03;4.95;;;;;;;29.07;53.53;99954.60;1683645;84;21064;-33
2021/08/09 13:10:08;;;;;;;9.33;4.97;;;;;;;29.13;53.52;99950.91;1676364;84;21008;-39
2021/08/09 13:12:35;;;;;;;8.33;4.67;;;;;;;29.19;52.51;99960.81;1675185;84;21061;-39
2021/08/09 13:15:05;;;;;;;11.00;4.42;;;;;;;29.14;52.78;99958.00;1680890;84;21063;-40
2021/08/09 13:17:32;;;;;;;7.58;5.00;;;;;;;29.13;53.29;99957.64;1677360;84;21199;-41
2021/08/09 13:20:00;;;;;;;5.92;4.50;;;;;;;29.21;53.31;99961.03;1649552;85;21061;-40
2021/08/09 13:22:28;;;;;;;11.78;4.70;;;;;;;29.30;52.71;99968.36;1674274;84;21124;-35
2021/08/09 13:24:56;;;;;;;12.10;5.17;;;;;;;29.35;52.56;99974.72;1679776;84;21565;-34
2021/08/09 13:27:23;;;;;;;13.58;4.83;;;;;;;29.36;52.57;99972.39;1678932;84;21112;-34
2021/08/09 13:29:50;;;;;;;7.37;4.55;;;;;;;29.38;52.38;99975.80;1682024;84;21062;-34
2021/08/09 13:32:17;;;;;;;5.90;4.35;;;;;;;29.38;51.73;99973.95;1680984;84;21056;-40
2021/08/09 13:34:45;;;;;;;10.32;4.70;;;;;;;29.36;52.04;99979.97;1688793;83;21091;-35
2021/08/09 13:37:12;;;;;;;8.03;4.65;;;;;;;29.30;50.97;99982.33;1725109;81;21607;-40
2021/08/09 13:39:40;;;;;;;7.78;3.85;;;;;;;29.22;51.92;99980.73;1739126;82;23100;-34
2021/08/09 13:42:07;;;;;;;6.45;4.40;;;;;;;29.14;52.20;99978.19;1731653;82;21564;-40
2021/08/09 13:44:34;;;;;;;5.92;4.40;;;;;;;29.11;52.37;99976.27;1727789;82;21563;-40
2021/08/09 13:47:00;;;;;;;7.97;4.72;;;;;;;29.15;52.45;99976.36;1727375;81;21048;-34
2021/08/09 13:49:27;;;;;;;9.85;4.92;;;;;;;29.24;51.87;99977.45;1738328;82;21729;-34
